YBL weather

Campbell River Airport
Campbell River, British Columbia, Canada

Public forecast

Using degrees Celsius for public forecast. Weather courtesy of forecast.io.

Current aviation weather report (METAR) for Campbell River Airport

Retrieved 2019/10/13 23:00 UTC (31 minutes ago):

CYBL 132300Z 04008KT 330V060 30SM FEW045 14/04 A2995 RMK CU1 CU TR SLP144

Aviation forecast (TAF) for Campbell River Airport

Retrieved 2019/10/13 19:00 UTC (5 hours ago):

TAF CYBL 131838Z 1319/1404 30010G20KT P6SM FEW030 BECMG 1400/1402 VRB03KT RMK NXT FCST BY 140100Z